Terminal Aerodrome Forecast
Issued by NWS

Home | Current Version | Previous Version | Text Only | Print | Product List | Glossary On
Versions: 1 2 3 4 5 6 7 8 9 10 11 12 13 14 15 16 17 18 19 20 21 22 23 24 25 26
000
FTUS44 KEWX 190600 AAA
TAFSSF
TAF AMD
KSSF 190617Z 1906/2006 04006KT 5SM -SHRA BR BKN005 OVC020
     FM190700 03006KT 4SM SHRA BR OVC005
      TEMPO 1908/1912 2SM TSRA BR BKN005 OVC025CB
     FM191600 03008KT P6SM VCSH OVC007
     FM192100 02007KT P6SM OVC025
     FM200400 02005KT 5SM BR OVC015=

USA.gov is the U.S. government's official web portal to all federal, state and local government web resources and services.